DAL4522 SPYL-SPJC
Flight info
| Callsign | DAL4522 |
|---|---|
| Flight time | N/A |
| Altitude | 35000 |
| Route | URA UV1 ATATU |
| Aircraft | B738/M-SDE2E3FGHIRWXY/LB1 |
Departure
| Time | 2026-04-28 22:47 |
|---|---|
| Airport | Captain Victor Montes Arias International Airport (SPYL) |
Arrival
| Time | N/A |
|---|---|
| Airport | Jorge Chávez International Airport (SPJC) |
| Time | Latitude | Longitude | Altitude | Speed | Heading |
|---|---|---|---|---|---|
| 2026-04-28 22:33 | -4.57564 | -81.25581 | 287 ft | 0 kts | 266° |
| 2026-04-28 22:40 | -4.57564 | -81.25572 | 287 ft | 4 kts | 274° |
| 2026-04-28 22:41 | -4.57570 | -81.25553 | 291 ft | 4 kts | 342° |
| 2026-04-28 22:41 | -4.57591 | -81.25558 | 293 ft | 4 kts | 36° |
| 2026-04-28 22:41 | -4.57603 | -81.25568 | 289 ft | 1 kts | 43° |
| 2026-04-28 22:41 | -4.57605 | -81.25569 | 292 ft | 0 kts | 43° |
| 2026-04-28 22:43 | -4.57604 | -81.25568 | 293 ft | 1 kts | 43° |
| 2026-04-28 22:43 | -4.57576 | -81.25524 | 290 ft | 12 kts | 78° |
| 2026-04-28 22:43 | -4.57555 | -81.25413 | 290 ft | 20 kts | 78° |
| 2026-04-28 22:43 | -4.57523 | -81.25278 | 290 ft | 16 kts | 53° |
| 2026-04-28 22:44 | -4.57418 | -81.25271 | 287 ft | 16 kts | 348° |
| 2026-04-28 22:44 | -4.57289 | -81.25298 | 287 ft | 22 kts | 348° |
| 2026-04-28 22:44 | -4.57129 | -81.25330 | 289 ft | 25 kts | 349° |
| 2026-04-28 22:44 | -4.56943 | -81.25356 | 286 ft | 28 kts | 355° |
| 2026-04-28 22:45 | -4.56756 | -81.25373 | 288 ft | 25 kts | 344° |
| 2026-04-28 22:45 | -4.56637 | -81.25487 | 286 ft | 23 kts | 307° |
| 2026-04-28 22:45 | -4.56582 | -81.25582 | 287 ft | 8 kts | 249° |
| 2026-04-28 22:45 | -4.56612 | -81.25591 | 287 ft | 0 kts | 171° |
| 2026-04-28 22:46 | -4.56784 | -81.25562 | 288 ft | 65 kts | 170° |
| 2026-04-28 22:46 | -4.57498 | -81.25436 | 290 ft | 141 kts | 171° |
| 2026-04-28 22:46 | -4.58619 | -81.25231 | 601 ft | 181 kts | 173° |
| 2026-04-28 22:47 | -4.59967 | -81.25001 | 1092 ft | 208 kts | 173° |
| 2026-04-28 22:47 | -4.61358 | -81.24435 | 1765 ft | 226 kts | 143° |
| 2026-04-28 22:47 | -4.62467 | -81.23245 | 2451 ft | 240 kts | 131° |
| 2026-04-28 22:47 | -4.63649 | -81.22035 | 3255 ft | 244 kts | 135° |
| 2026-04-28 22:48 | -4.64810 | -81.20755 | 3972 ft | 254 kts | 131° |
| 2026-04-28 22:48 | -4.66042 | -81.19439 | 4660 ft | 264 kts | 133° |
| 2026-04-28 22:48 | -4.67333 | -81.18100 | 5382 ft | 269 kts | 133° |
| 2026-04-28 22:48 | -4.68636 | -81.16751 | 6251 ft | 269 kts | 134° |
| 2026-04-28 22:49 | -4.69939 | -81.15396 | 7023 ft | 271 kts | 133° |
| 2026-04-28 22:49 | -4.71231 | -81.14050 | 7809 ft | 271 kts | 133° |
| 2026-04-28 22:49 | -4.72542 | -81.12679 | 8599 ft | 273 kts | 132° |
| 2026-04-28 22:49 | -4.73856 | -81.11301 | 9398 ft | 274 kts | 132° |
| 2026-04-28 22:50 | -4.75179 | -81.09911 | 10145 ft | 276 kts | 132° |
| 2026-04-28 22:50 | -4.76508 | -81.08513 | 10829 ft | 279 kts | 131° |
| 2026-04-28 22:50 | -4.77863 | -81.07088 | 11365 ft | 289 kts | 132° |
| 2026-04-28 22:50 | -4.79305 | -81.05568 | 11515 ft | 312 kts | 132° |
| 2026-04-28 22:51 | -4.80855 | -81.03934 | 11681 ft | 334 kts | 132° |
| 2026-04-28 22:51 | -4.82501 | -81.02199 | 11840 ft | 353 kts | 132° |
| 2026-04-28 22:51 | -4.84219 | -81.00387 | 12245 ft | 362 kts | 132° |
| 2026-04-28 22:51 | -4.85967 | -80.98547 | 12845 ft | 366 kts | 132° |
| 2026-04-28 22:52 | -4.87730 | -80.96691 | 13489 ft | 368 kts | 132° |
| 2026-04-28 22:52 | -4.89503 | -80.94825 | 14049 ft | 371 kts | 132° |
| 2026-04-28 22:52 | -4.91288 | -80.92946 | 14583 ft | 374 kts | 132° |
| 2026-04-28 22:52 | -4.93089 | -80.91048 | 15113 ft | 377 kts | 132° |
| 2026-04-28 22:53 | -4.94880 | -80.89160 | 15602 ft | 380 kts | 132° |
| 2026-04-28 22:53 | -4.96733 | -80.87205 | 16110 ft | 383 kts | 132° |
| 2026-04-28 22:53 | -4.98556 | -80.85283 | 16600 ft | 386 kts | 132° |
| 2026-04-28 22:53 | -5.00415 | -80.83322 | 17087 ft | 389 kts | 132° |
| 2026-04-28 22:54 | -5.02287 | -80.81348 | 17562 ft | 392 kts | 132° |
| 2026-04-28 22:54 | -5.04172 | -80.79360 | 18039 ft | 395 kts | 132° |
| 2026-04-28 22:54 | -5.06074 | -80.77354 | 18445 ft | 398 kts | 132° |
| 2026-04-28 22:54 | -5.07988 | -80.75335 | 18844 ft | 400 kts | 132° |
| 2026-04-28 22:55 | -5.09911 | -80.73305 | 19241 ft | 403 kts | 132° |
| 2026-04-28 22:55 | -5.11852 | -80.71258 | 19617 ft | 406 kts | 132° |
| 2026-04-28 22:55 | -5.13801 | -80.69201 | 19991 ft | 408 kts | 132° |
| 2026-04-28 22:55 | -5.15765 | -80.67127 | 20367 ft | 411 kts | 132° |
| 2026-04-28 22:56 | -5.17739 | -80.65045 | 20738 ft | 414 kts | 132° |
| 2026-04-28 22:56 | -5.19741 | -80.62961 | 21097 ft | 417 kts | 135° |
| 2026-04-28 22:56 | -5.21988 | -80.61101 | 21419 ft | 421 kts | 144° |
| 2026-04-28 22:56 | -5.24529 | -80.59608 | 21788 ft | 424 kts | 150° |
| 2026-04-28 22:57 | -5.27152 | -80.58234 | 22129 ft | 427 kts | 152° |
| 2026-04-28 22:57 | -5.29807 | -80.56868 | 22437 ft | 430 kts | 152° |
| 2026-04-28 22:57 | -5.32479 | -80.55494 | 22747 ft | 433 kts | 152° |
| 2026-04-28 22:57 | -5.35163 | -80.54106 | 23073 ft | 435 kts | 152° |
| 2026-04-28 22:58 | -5.37857 | -80.52702 | 23381 ft | 437 kts | 152° |
| 2026-04-28 22:58 | -5.40559 | -80.51286 | 23630 ft | 440 kts | 152° |
| 2026-04-28 22:58 | -5.43241 | -80.49875 | 23873 ft | 442 kts | 152° |
| 2026-04-28 22:58 | -5.45966 | -80.48437 | 24128 ft | 444 kts | 152° |
| 2026-04-28 22:59 | -5.48706 | -80.46991 | 24374 ft | 446 kts | 152° |
| 2026-04-28 22:59 | -5.51460 | -80.45536 | 24608 ft | 448 kts | 152° |
| 2026-04-28 22:59 | -5.54224 | -80.44076 | 24832 ft | 450 kts | 152° |
| 2026-04-28 22:59 | -5.57006 | -80.42606 | 25065 ft | 452 kts | 152° |
| 2026-04-28 23:00 | -5.59801 | -80.41130 | 25297 ft | 454 kts | 152° |
| 2026-04-28 23:00 | -5.62605 | -80.39650 | 25513 ft | 456 kts | 152° |
| 2026-04-28 23:00 | -5.65423 | -80.38162 | 25726 ft | 459 kts | 151° |
| 2026-04-28 23:00 | -5.68253 | -80.36667 | 25939 ft | 461 kts | 151° |
| 2026-04-28 23:01 | -5.71093 | -80.35167 | 26151 ft | 463 kts | 151° |
| 2026-04-28 23:01 | -5.73951 | -80.33657 | 26357 ft | 465 kts | 151° |
| 2026-04-28 23:01 | -5.76818 | -80.32142 | 26573 ft | 467 kts | 151° |
| 2026-04-28 23:01 | -5.79698 | -80.30620 | 26774 ft | 469 kts | 151° |
| 2026-04-28 23:02 | -5.82588 | -80.29092 | 26973 ft | 470 kts | 151° |
| 2026-04-28 23:02 | -5.85495 | -80.27556 | 27164 ft | 473 kts | 151° |
| 2026-04-28 23:02 | -5.88407 | -80.26017 | 27358 ft | 474 kts | 151° |
| 2026-04-28 23:02 | -5.91334 | -80.24469 | 27548 ft | 476 kts | 151° |
| 2026-04-28 23:03 | -5.94267 | -80.22919 | 27736 ft | 478 kts | 151° |
| 2026-04-28 23:03 | -5.97217 | -80.21359 | 27915 ft | 480 kts | 151° |
| 2026-04-28 23:03 | -6.00174 | -80.19794 | 28097 ft | 481 kts | 151° |
| 2026-04-28 23:03 | -6.03141 | -80.18225 | 28271 ft | 483 kts | 151° |
| 2026-04-28 23:04 | -6.06122 | -80.16648 | 28437 ft | 485 kts | 151° |
| 2026-04-28 23:04 | -6.12114 | -80.13477 | 28775 ft | 488 kts | 151° |
| 2026-04-28 23:04 | -6.15082 | -80.11906 | 28970 ft | 489 kts | 151° |
| 2026-04-28 23:05 | -6.18092 | -80.10313 | 29223 ft | 489 kts | 151° |
| 2026-04-28 23:05 | -6.21097 | -80.08723 | 29488 ft | 488 kts | 151° |
| 2026-04-28 23:05 | -6.24102 | -80.07132 | 29751 ft | 488 kts | 151° |
| 2026-04-28 23:05 | -6.27106 | -80.05542 | 29972 ft | 488 kts | 151° |
| 2026-04-28 23:06 | -6.30110 | -80.03951 | 30214 ft | 487 kts | 151° |
| 2026-04-28 23:06 | -6.33104 | -80.02365 | 30484 ft | 486 kts | 151° |
| 2026-04-28 23:06 | -6.36098 | -80.00779 | 30738 ft | 485 kts | 151° |
| 2026-04-28 23:06 | -6.39084 | -79.99197 | 30970 ft | 485 kts | 152° |
| 2026-04-28 23:07 | -6.42070 | -79.97615 | 31201 ft | 485 kts | 152° |
| 2026-04-28 23:07 | -6.45051 | -79.96035 | 31451 ft | 484 kts | 152° |
| 2026-04-28 23:07 | -6.48028 | -79.94457 | 31720 ft | 483 kts | 152° |
| 2026-04-28 23:07 | -6.51000 | -79.92881 | 31976 ft | 483 kts | 152° |
| 2026-04-28 23:08 | -6.53968 | -79.91308 | 32219 ft | 483 kts | 152° |
| 2026-04-28 23:08 | -6.56937 | -79.89734 | 32478 ft | 482 kts | 152° |
| 2026-04-28 23:08 | -6.59903 | -79.88161 | 32752 ft | 481 kts | 152° |
| 2026-04-28 23:08 | -6.62863 | -79.86591 | 33043 ft | 480 kts | 152° |
| 2026-04-28 23:09 | -6.65816 | -79.85024 | 33298 ft | 480 kts | 152° |
| 2026-04-28 23:09 | -6.68769 | -79.83457 | 33549 ft | 479 kts | 152° |
| 2026-04-28 23:09 | -6.71710 | -79.81896 | 33833 ft | 478 kts | 152° |
| 2026-04-28 23:09 | -6.74660 | -79.80352 | 34112 ft | 477 kts | 152° |
| 2026-04-28 23:10 | -6.77607 | -79.78835 | 34372 ft | 475 kts | 153° |
| 2026-04-28 23:10 | -6.80554 | -79.77328 | 34616 ft | 474 kts | 153° |
| 2026-04-28 23:10 | -6.83495 | -79.75826 | 34852 ft | 474 kts | 153° |
| 2026-04-28 23:10 | -6.86444 | -79.74318 | 34869 ft | 477 kts | 153° |
| 2026-04-28 23:11 | -6.92389 | -79.71268 | 34885 ft | 481 kts | 153° |
| 2026-04-28 23:11 | -6.98335 | -79.68210 | 34892 ft | 479 kts | 153° |
| 2026-04-28 23:12 | -7.04256 | -79.65162 | 34905 ft | 477 kts | 153° |
| 2026-04-28 23:12 | -7.10128 | -79.62138 | 34896 ft | 477 kts | 153° |
| 2026-04-28 23:13 | -7.16032 | -79.59097 | 34900 ft | 476 kts | 153° |
| 2026-04-28 23:13 | -7.21938 | -79.56055 | 34897 ft | 477 kts | 152° |
| 2026-04-28 23:14 | -7.27847 | -79.53011 | 34903 ft | 477 kts | 152° |
| 2026-04-28 23:14 | -7.33763 | -79.49961 | 34904 ft | 478 kts | 152° |
| 2026-04-28 23:15 | -7.39695 | -79.46903 | 34907 ft | 480 kts | 152° |
| 2026-04-28 23:15 | -7.45647 | -79.43833 | 34904 ft | 481 kts | 152° |
| 2026-04-28 23:16 | -7.51604 | -79.40761 | 34906 ft | 481 kts | 152° |
| 2026-04-28 23:16 | -7.57565 | -79.37684 | 34904 ft | 482 kts | 152° |
| 2026-04-28 23:17 | -7.63531 | -79.34605 | 34907 ft | 482 kts | 152° |
| 2026-04-28 23:17 | -7.69496 | -79.31524 | 34904 ft | 482 kts | 152° |
| 2026-04-28 23:18 | -7.75468 | -79.28439 | 34897 ft | 482 kts | 152° |
| 2026-04-28 23:18 | -7.81397 | -79.25376 | 34906 ft | 482 kts | 152° |
| 2026-04-28 23:19 | -7.87360 | -79.22294 | 34908 ft | 482 kts | 152° |
| 2026-04-28 23:19 | -7.93324 | -79.19209 | 34910 ft | 482 kts | 152° |
| 2026-04-28 23:20 | -7.99286 | -79.16126 | 34912 ft | 482 kts | 152° |
| 2026-04-28 23:20 | -8.05251 | -79.13038 | 34910 ft | 482 kts | 152° |
| 2026-04-28 23:21 | -8.11200 | -79.09928 | 34912 ft | 482 kts | 151° |
| 2026-04-28 23:21 | -8.17077 | -79.06670 | 34915 ft | 482 kts | 150° |
| 2026-04-28 23:22 | -8.21987 | -79.03910 | 34914 ft | 483 kts | 150° |
| 2026-04-28 23:22 | -8.28821 | -79.00090 | 34914 ft | 483 kts | 150° |
| 2026-04-28 23:23 | -8.34711 | -78.96815 | 34923 ft | 484 kts | 150° |
| 2026-04-28 23:23 | -8.40611 | -78.93537 | 34936 ft | 484 kts | 150° |
| 2026-04-28 23:24 | -8.46519 | -78.90254 | 34942 ft | 485 kts | 150° |
| 2026-04-28 23:24 | -8.52434 | -78.86964 | 34932 ft | 485 kts | 150° |
| 2026-04-28 23:25 | -8.57349 | -78.84230 | 34943 ft | 486 kts | 150° |
| 2026-04-28 23:25 | -8.63272 | -78.80933 | 34941 ft | 486 kts | 150° |
| 2026-04-28 23:26 | -8.69191 | -78.77638 | 34939 ft | 486 kts | 150° |
| 2026-04-28 23:26 | -8.75113 | -78.74339 | 34939 ft | 486 kts | 150° |
| 2026-04-28 23:27 | -8.81035 | -78.71039 | 34930 ft | 486 kts | 150° |
| 2026-04-28 23:27 | -8.86957 | -78.67739 | 34932 ft | 486 kts | 150° |
| 2026-04-28 23:28 | -8.92875 | -78.64439 | 34928 ft | 486 kts | 150° |
| 2026-04-28 23:28 | -8.98798 | -78.61135 | 34930 ft | 486 kts | 150° |
| 2026-04-28 23:29 | -9.04688 | -78.57848 | 34926 ft | 486 kts | 150° |
| 2026-04-28 23:29 | -9.10614 | -78.54539 | 34927 ft | 486 kts | 150° |
| 2026-04-28 23:30 | -9.16565 | -78.51269 | 34924 ft | 487 kts | 152° |
| 2026-04-28 23:30 | -9.22662 | -78.48279 | 34929 ft | 487 kts | 154° |
| 2026-04-28 23:31 | -9.28808 | -78.45363 | 34936 ft | 488 kts | 154° |
| 2026-04-28 23:31 | -9.34945 | -78.42418 | 34939 ft | 488 kts | 153° |
| 2026-04-28 23:32 | -9.41073 | -78.39445 | 34948 ft | 489 kts | 153° |
| 2026-04-28 23:32 | -9.47205 | -78.36459 | 34960 ft | 489 kts | 153° |
| 2026-04-28 23:33 | -9.53335 | -78.33474 | 34963 ft | 489 kts | 153° |
| 2026-04-28 23:33 | -9.59472 | -78.30486 | 34971 ft | 490 kts | 153° |
| 2026-04-28 23:34 | -9.65612 | -78.27496 | 34970 ft | 490 kts | 153° |
| 2026-04-28 23:34 | -9.71755 | -78.24504 | 34980 ft | 490 kts | 153° |
| 2026-04-28 23:35 | -9.77894 | -78.21512 | 34976 ft | 490 kts | 153° |
| 2026-04-28 23:35 | -9.84038 | -78.18516 | 34988 ft | 490 kts | 153° |
| 2026-04-28 23:36 | -9.89244 | -78.15977 | 34978 ft | 490 kts | 153° |